sensor_id;sensor_type;location;lat;lon;timestamp;temperature;humidity
16958;DHT22;8595;52.542;11.974;2023-08-07T00:01:34;16.30;99.90
16958;DHT22;8595;52.542;11.974;2023-08-07T00:04:00;16.30;99.90
16958;DHT22;8595;52.542;11.974;2023-08-07T00:06:27;16.20;99.90
16958;DHT22;8595;52.542;11.974;2023-08-07T00:08:55;16.20;99.90
16958;DHT22;8595;52.542;11.974;2023-08-07T00:11:22;16.10;99.90
16958;DHT22;8595;52.542;11.974;2023-08-07T00:13:49;16.20;99.90
16958;DHT22;8595;52.542;11.974;2023-08-07T00:16:15;16.20;99.90
16958;DHT22;8595;52.542;11.974;2023-08-07T00:18:42;16.20;99.90
16958;DHT22;8595;52.542;11.974;2023-08-07T00:21:09;16.10;99.90
16958;DHT22;8595;52.542;11.974;2023-08-07T00:23:36;16.10;99.90
16958;DHT22;8595;52.542;11.974;2023-08-07T00:26:04;16.20;99.90
16958;DHT22;8595;52.542;11.974;2023-08-07T00:28:31;16.30;99.90
16958;DHT22;8595;52.542;11.974;2023-08-07T00:30:58;16.20;99.90
16958;DHT22;8595;52.542;11.974;2023-08-07T00:33:24;16.20;99.90
16958;DHT22;8595;52.542;11.974;2023-08-07T00:35:51;16.10;99.90
16958;DHT22;8595;52.542;11.974;2023-08-07T00:38:18;16.10;99.90
16958;DHT22;8595;52.542;11.974;2023-08-07T00:40:45;16.10;99.90
16958;DHT22;8595;52.542;11.974;2023-08-07T00:43:13;16.00;99.90
16958;DHT22;8595;52.542;11.974;2023-08-07T00:45:42;16.00;99.90
16958;DHT22;8595;52.542;11.974;2023-08-07T00:48:10;16.00;99.90
16958;DHT22;8595;52.542;11.974;2023-08-07T00:50:38;15.90;99.90
16958;DHT22;8595;52.542;11.974;2023-08-07T00:53:06;15.90;99.90
16958;DHT22;8595;52.542;11.974;2023-08-07T00:55:33;15.90;99.90
16958;DHT22;8595;52.542;11.974;2023-08-07T00:58:00;15.90;99.90
16958;DHT22;8595;52.542;11.974;2023-08-07T01:00:29;15.90;99.90
16958;DHT22;8595;52.542;11.974;2023-08-07T01:02:56;15.80;99.90
16958;DHT22;8595;52.542;11.974;2023-08-07T01:05:24;15.80;99.90
16958;DHT22;8595;52.542;11.974;2023-08-07T01:07:53;15.80;99.90
16958;DHT22;8595;52.542;11.974;2023-08-07T01:10:35;15.70;99.90
16958;DHT22;8595;52.542;11.974;2023-08-07T01:13:10;15.70;99.90
16958;DHT22;8595;52.542;11.974;2023-08-07T01:15:41;15.70;99.90
16958;DHT22;8595;52.542;11.974;2023-08-07T01:18:08;15.70;99.90
16958;DHT22;8595;52.542;11.974;2023-08-07T01:20:35;15.80;99.90
16958;DHT22;8595;52.542;11.974;2023-08-07T01:23:04;15.80;99.90
16958;DHT22;8595;52.542;11.974;2023-08-07T01:25:31;15.80;99.90
16958;DHT22;8595;52.542;11.974;2023-08-07T01:28:02;15.80;99.90
16958;DHT22;8595;52.542;11.974;2023-08-07T01:30:33;15.80;99.90
16958;DHT22;8595;52.542;11.974;2023-08-07T01:33:09;15.80;99.90
16958;DHT22;8595;52.542;11.974;2023-08-07T01:35:41;15.70;99.90
16958;DHT22;8595;52.542;11.974;2023-08-07T01:38:11;15.70;99.90
16958;DHT22;8595;52.542;11.974;2023-08-07T01:40:39;15.50;99.90
16958;DHT22;8595;52.542;11.974;2023-08-07T01:43:06;15.60;99.90
16958;DHT22;8595;52.542;11.974;2023-08-07T01:45:33;15.60;99.90
16958;DHT22;8595;52.542;11.974;2023-08-07T01:48:00;15.50;99.90
16958;DHT22;8595;52.542;11.974;2023-08-07T01:50:27;15.50;99.90
16958;DHT22;8595;52.542;11.974;2023-08-07T01:52:54;15.60;99.90
16958;DHT22;8595;52.542;11.974;2023-08-07T01:55:23;15.60;99.90
16958;DHT22;8595;52.542;11.974;2023-08-07T01:57:50;15.70;99.90
16958;DHT22;8595;52.542;11.974;2023-08-07T02:00:17;15.60;99.90
16958;DHT22;8595;52.542;11.974;2023-08-07T02:02:44;15.60;99.90
16958;DHT22;8595;52.542;11.974;2023-08-07T02:05:12;15.50;99.90
16958;DHT22;8595;52.542;11.974;2023-08-07T02:07:39;15.50;99.90
16958;DHT22;8595;52.542;11.974;2023-08-07T02:10:07;15.50;99.90
16958;DHT22;8595;52.542;11.974;2023-08-07T02:12:35;15.50;99.90
16958;DHT22;8595;52.542;11.974;2023-08-07T02:15:02;15.50;99.90
16958;DHT22;8595;52.542;11.974;2023-08-07T02:17:29;15.50;99.90
16958;DHT22;8595;52.542;11.974;2023-08-07T02:19:56;15.40;99.90
16958;DHT22;8595;52.542;11.974;2023-08-07T02:22:23;15.40;99.90
16958;DHT22;8595;52.542;11.974;2023-08-07T02:24:50;15.40;99.90
16958;DHT22;8595;52.542;11.974;2023-08-07T02:27:17;15.30;99.90
16958;DHT22;8595;52.542;11.974;2023-08-07T02:29:45;15.30;99.90
16958;DHT22;8595;52.542;11.974;2023-08-07T02:32:12;15.30;99.90
16958;DHT22;8595;52.542;11.974;2023-08-07T02:34:39;15.20;99.90
16958;DHT22;8595;52.542;11.974;2023-08-07T02:37:05;15.20;99.90
16958;DHT22;8595;52.542;11.974;2023-08-07T02:39:32;15.20;99.90
16958;DHT22;8595;52.542;11.974;2023-08-07T02:41:59;15.10;99.90
16958;DHT22;8595;52.542;11.974;2023-08-07T02:44:26;15.10;99.90
16958;DHT22;8595;52.542;11.974;2023-08-07T02:46:54;15.10;99.90
16958;DHT22;8595;52.542;11.974;2023-08-07T02:49:20;15.10;99.90
16958;DHT22;8595;52.542;11.974;2023-08-07T02:51:47;15.20;99.90
16958;DHT22;8595;52.542;11.974;2023-08-07T02:54:14;15.10;99.90
16958;DHT22;8595;52.542;11.974;2023-08-07T02:56:41;15.20;99.90
16958;DHT22;8595;52.542;11.974;2023-08-07T02:59:07;15.00;99.90
16958;DHT22;8595;52.542;11.974;2023-08-07T03:01:35;15.00;99.90
16958;DHT22;8595;52.542;11.974;2023-08-07T03:04:04;14.90;99.90
16958;DHT22;8595;52.542;11.974;2023-08-07T03:06:30;14.90;99.90
16958;DHT22;8595;52.542;11.974;2023-08-07T03:08:57;15.00;99.90
16958;DHT22;8595;52.542;11.974;2023-08-07T03:11:24;15.00;99.90
16958;DHT22;8595;52.542;11.974;2023-08-07T03:13:52;14.90;99.90
16958;DHT22;8595;52.542;11.974;2023-08-07T03:16:19;14.80;99.90
16958;DHT22;8595;52.542;11.974;2023-08-07T03:18:46;14.90;99.90
16958;DHT22;8595;52.542;11.974;2023-08-07T03:21:14;14.90;99.90
16958;DHT22;8595;52.542;11.974;2023-08-07T03:23:41;14.90;99.90
16958;DHT22;8595;52.542;11.974;2023-08-07T03:26:10;14.80;99.90
16958;DHT22;8595;52.542;11.974;2023-08-07T03:28:38;14.80;99.90
16958;DHT22;8595;52.542;11.974;2023-08-07T03:31:05;14.70;99.90
16958;DHT22;8595;52.542;11.974;2023-08-07T03:33:31;14.80;99.90
16958;DHT22;8595;52.542;11.974;2023-08-07T03:35:58;14.90;99.90
16958;DHT22;8595;52.542;11.974;2023-08-07T03:38:26;14.90;99.90
16958;DHT22;8595;52.542;11.974;2023-08-07T03:40:53;14.80;99.90
16958;DHT22;8595;52.542;11.974;2023-08-07T03:43:20;14.70;99.90
16958;DHT22;8595;52.542;11.974;2023-08-07T03:45:47;14.60;99.90
16958;DHT22;8595;52.542;11.974;2023-08-07T03:48:13;14.80;99.90
16958;DHT22;8595;52.542;11.974;2023-08-07T03:50:40;14.90;99.90
16958;DHT22;8595;52.542;11.974;2023-08-07T03:53:07;14.90;99.90
16958;DHT22;8595;52.542;11.974;2023-08-07T03:55:35;14.90;99.90
16958;DHT22;8595;52.542;11.974;2023-08-07T03:58:02;14.80;99.90
16958;DHT22;8595;52.542;11.974;2023-08-07T04:00:29;14.80;99.90
16958;DHT22;8595;52.542;11.974;2023-08-07T04:02:56;14.80;99.90
16958;DHT22;8595;52.542;11.974;2023-08-07T04:05:23;14.80;99.90
16958;DHT22;8595;52.542;11.974;2023-08-07T04:07:50;14.90;99.90
16958;DHT22;8595;52.542;11.974;2023-08-07T04:10:17;14.80;99.90
16958;DHT22;8595;52.542;11.974;2023-08-07T04:12:45;14.90;99.90
16958;DHT22;8595;52.542;11.974;2023-08-07T04:15:12;14.90;99.90
16958;DHT22;8595;52.542;11.974;2023-08-07T04:17:41;14.90;99.90
16958;DHT22;8595;52.542;11.974;2023-08-07T04:20:09;15.00;99.90
16958;DHT22;8595;52.542;11.974;2023-08-07T04:22:36;15.10;99.90
16958;DHT22;8595;52.542;11.974;2023-08-07T04:25:03;15.00;99.90
16958;DHT22;8595;52.542;11.974;2023-08-07T04:27:30;15.10;99.90
16958;DHT22;8595;52.542;11.974;2023-08-07T04:29:58;15.10;99.90
16958;DHT22;8595;52.542;11.974;2023-08-07T04:32:25;15.10;99.90
16958;DHT22;8595;52.542;11.974;2023-08-07T04:34:52;15.20;99.90
16958;DHT22;8595;52.542;11.974;2023-08-07T04:37:19;15.30;99.90
16958;DHT22;8595;52.542;11.974;2023-08-07T04:39:45;15.30;99.90
16958;DHT22;8595;52.542;11.974;2023-08-07T04:42:12;15.30;99.90
16958;DHT22;8595;52.542;11.974;2023-08-07T04:44:39;15.40;99.90
16958;DHT22;8595;52.542;11.974;2023-08-07T04:47:07;15.40;99.90
16958;DHT22;8595;52.542;11.974;2023-08-07T04:49:34;15.60;99.90
16958;DHT22;8595;52.542;11.974;2023-08-07T04:52:01;15.50;99.90
16958;DHT22;8595;52.542;11.974;2023-08-07T04:54:27;15.50;99.90
16958;DHT22;8595;52.542;11.974;2023-08-07T04:56:54;15.50;99.90
16958;DHT22;8595;52.542;11.974;2023-08-07T04:59:21;15.60;99.90
16958;DHT22;8595;52.542;11.974;2023-08-07T05:01:48;15.70;99.90
16958;DHT22;8595;52.542;11.974;2023-08-07T05:04:18;15.70;99.90
16958;DHT22;8595;52.542;11.974;2023-08-07T05:06:45;15.80;99.90
16958;DHT22;8595;52.542;11.974;2023-08-07T05:09:12;15.80;99.90
16958;DHT22;8595;52.542;11.974;2023-08-07T05:11:39;15.70;99.90
16958;DHT22;8595;52.542;11.974;2023-08-07T05:14:05;15.70;99.90
16958;DHT22;8595;52.542;11.974;2023-08-07T05:16:32;15.70;99.90
16958;DHT22;8595;52.542;11.974;2023-08-07T05:18:59;15.70;99.90
16958;DHT22;8595;52.542;11.974;2023-08-07T05:21:27;15.70;99.90
16958;DHT22;8595;52.542;11.974;2023-08-07T05:23:54;15.90;99.90
16958;DHT22;8595;52.542;11.974;2023-08-07T05:26:20;15.90;99.90
16958;DHT22;8595;52.542;11.974;2023-08-07T05:28:47;15.90;99.90
16958;DHT22;8595;52.542;11.974;2023-08-07T05:31:14;16.10;99.90
16958;DHT22;8595;52.542;11.974;2023-08-07T05:33:40;16.10;99.90
16958;DHT22;8595;52.542;11.974;2023-08-07T05:36:07;16.30;99.90
16958;DHT22;8595;52.542;11.974;2023-08-07T05:38:35;16.20;99.90
16958;DHT22;8595;52.542;11.974;2023-08-07T05:41:02;16.20;99.90
16958;DHT22;8595;52.542;11.974;2023-08-07T05:43:29;16.30;99.90
16958;DHT22;8595;52.542;11.974;2023-08-07T05:45:56;16.20;99.90
16958;DHT22;8595;52.542;11.974;2023-08-07T05:48:22;16.20;99.90
16958;DHT22;8595;52.542;11.974;2023-08-07T05:50:51;16.30;99.90
16958;DHT22;8595;52.542;11.974;2023-08-07T05:53:17;16.30;99.90
16958;DHT22;8595;52.542;11.974;2023-08-07T05:55:46;16.40;99.90
16958;DHT22;8595;52.542;11.974;2023-08-07T05:58:12;16.50;99.90
16958;DHT22;8595;52.542;11.974;2023-08-07T06:00:39;16.50;99.90
16958;DHT22;8595;52.542;11.974;2023-08-07T06:03:06;16.60;99.90
16958;DHT22;8595;52.542;11.974;2023-08-07T06:05:33;16.60;99.90
16958;DHT22;8595;52.542;11.974;2023-08-07T06:08:00;16.60;99.90
16958;DHT22;8595;52.542;11.974;2023-08-07T06:10:27;16.80;99.90
16958;DHT22;8595;52.542;11.974;2023-08-07T06:12:55;16.80;99.90
16958;DHT22;8595;52.542;11.974;2023-08-07T06:15:22;16.80;99.90
16958;DHT22;8595;52.542;11.974;2023-08-07T06:17:49;16.70;99.90
16958;DHT22;8595;52.542;11.974;2023-08-07T06:20:16;16.70;99.90
16958;DHT22;8595;52.542;11.974;2023-08-07T06:22:44;16.80;99.90
16958;DHT22;8595;52.542;11.974;2023-08-07T06:25:11;16.90;99.90
16958;DHT22;8595;52.542;11.974;2023-08-07T06:27:37;17.10;99.90
16958;DHT22;8595;52.542;11.974;2023-08-07T06:30:06;17.10;99.90
16958;DHT22;8595;52.542;11.974;2023-08-07T06:32:34;17.00;99.90
16958;DHT22;8595;52.542;11.974;2023-08-07T06:35:02;17.10;99.90
16958;DHT22;8595;52.542;11.974;2023-08-07T06:37:30;17.20;99.90
16958;DHT22;8595;52.542;11.974;2023-08-07T06:39:56;17.20;99.90
16958;DHT22;8595;52.542;11.974;2023-08-07T06:42:23;17.40;99.90
16958;DHT22;8595;52.542;11.974;2023-08-07T06:44:50;17.50;99.90
16958;DHT22;8595;52.542;11.974;2023-08-07T06:47:18;17.60;99.90
16958;DHT22;8595;52.542;11.974;2023-08-07T06:49:45;17.50;99.90
16958;DHT22;8595;52.542;11.974;2023-08-07T06:52:11;17.60;99.90
16958;DHT22;8595;52.542;11.974;2023-08-07T06:54:38;17.50;99.90
16958;DHT22;8595;52.542;11.974;2023-08-07T06:57:05;17.70;99.90
16958;DHT22;8595;52.542;11.974;2023-08-07T06:59:32;17.70;99.90
16958;DHT22;8595;52.542;11.974;2023-08-07T07:01:59;17.70;99.90
16958;DHT22;8595;52.542;11.974;2023-08-07T07:04:27;17.70;99.90
16958;DHT22;8595;52.542;11.974;2023-08-07T07:06:54;17.80;99.90
16958;DHT22;8595;52.542;11.974;2023-08-07T07:09:21;17.80;99.90
16958;DHT22;8595;52.542;11.974;2023-08-07T07:11:48;17.90;99.90
16958;DHT22;8595;52.542;11.974;2023-08-07T07:14:14;18.00;99.90
16958;DHT22;8595;52.542;11.974;2023-08-07T07:16:41;18.00;99.90
16958;DHT22;8595;52.542;11.974;2023-08-07T07:19:09;17.90;99.90
16958;DHT22;8595;52.542;11.974;2023-08-07T07:21:37;17.90;99.90
16958;DHT22;8595;52.542;11.974;2023-08-07T07:24:04;18.10;99.90
16958;DHT22;8595;52.542;11.974;2023-08-07T07:26:32;18.00;99.90
16958;DHT22;8595;52.542;11.974;2023-08-07T07:28:58;17.90;99.90
16958;DHT22;8595;52.542;11.974;2023-08-07T07:31:25;18.10;99.90
16958;DHT22;8595;52.542;11.974;2023-08-07T07:33:52;18.00;99.90
16958;DHT22;8595;52.542;11.974;2023-08-07T07:36:19;17.90;99.90
16958;DHT22;8595;52.542;11.974;2023-08-07T07:38:47;17.80;99.90
16958;DHT22;8595;52.542;11.974;2023-08-07T07:41:14;17.60;99.90
16958;DHT22;8595;52.542;11.974;2023-08-07T07:43:41;17.40;99.90
16958;DHT22;8595;52.542;11.974;2023-08-07T07:46:08;17.60;99.90
16958;DHT22;8595;52.542;11.974;2023-08-07T07:48:35;17.60;99.90
16958;DHT22;8595;52.542;11.974;2023-08-07T07:51:03;17.70;99.90
16958;DHT22;8595;52.542;11.974;2023-08-07T07:53:30;17.60;99.90
16958;DHT22;8595;52.542;11.974;2023-08-07T07:55:58;17.60;99.90
16958;DHT22;8595;52.542;11.974;2023-08-07T07:58:25;17.70;99.90
16958;DHT22;8595;52.542;11.974;2023-08-07T08:00:52;17.80;99.90
16958;DHT22;8595;52.542;11.974;2023-08-07T08:03:20;17.60;99.90
16958;DHT22;8595;52.542;11.974;2023-08-07T08:05:49;17.70;99.90
16958;DHT22;8595;52.542;11.974;2023-08-07T08:08:16;17.70;99.90
16958;DHT22;8595;52.542;11.974;2023-08-07T08:10:43;17.90;99.90
16958;DHT22;8595;52.542;11.974;2023-08-07T08:13:11;17.90;99.90
16958;DHT22;8595;52.542;11.974;2023-08-07T08:15:38;18.20;99.90
16958;DHT22;8595;52.542;11.974;2023-08-07T08:18:05;18.10;99.90
16958;DHT22;8595;52.542;11.974;2023-08-07T08:20:32;18.10;99.90
16958;DHT22;8595;52.542;11.974;2023-08-07T08:22:59;18.20;99.90
16958;DHT22;8595;52.542;11.974;2023-08-07T08:25:25;18.30;99.90
16958;DHT22;8595;52.542;11.974;2023-08-07T08:27:52;18.60;99.90
16958;DHT22;8595;52.542;11.974;2023-08-07T08:30:21;18.30;99.90
16958;DHT22;8595;52.542;11.974;2023-08-07T08:32:48;18.20;99.90
16958;DHT22;8595;52.542;11.974;2023-08-07T08:35:16;18.30;99.90
16958;DHT22;8595;52.542;11.974;2023-08-07T08:37:43;18.30;99.90
16958;DHT22;8595;52.542;11.974;2023-08-07T08:40:10;18.50;99.90
16958;DHT22;8595;52.542;11.974;2023-08-07T08:42:43;18.70;99.90
16958;DHT22;8595;52.542;11.974;2023-08-07T08:45:13;18.80;99.90
16958;DHT22;8595;52.542;11.974;2023-08-07T08:47:42;18.70;99.90
16958;DHT22;8595;52.542;11.974;2023-08-07T08:50:12;18.70;99.90
16958;DHT22;8595;52.542;11.974;2023-08-07T08:52:42;18.90;99.90
16958;DHT22;8595;52.542;11.974;2023-08-07T08:55:10;19.00;99.90
16958;DHT22;8595;52.542;11.974;2023-08-07T08:57:38;19.00;99.90
16958;DHT22;8595;52.542;11.974;2023-08-07T09:00:06;18.90;99.90
16958;DHT22;8595;52.542;11.974;2023-08-07T09:02:44;19.00;99.90
16958;DHT22;8595;52.542;11.974;2023-08-07T09:05:11;18.90;99.90
16958;DHT22;8595;52.542;11.974;2023-08-07T09:07:37;18.90;99.90
16958;DHT22;8595;52.542;11.974;2023-08-07T09:10:05;19.00;99.90
16958;DHT22;8595;52.542;11.974;2023-08-07T09:12:33;18.70;99.90
16958;DHT22;8595;52.542;11.974;2023-08-07T09:15:03;18.80;99.90
16958;DHT22;8595;52.542;11.974;2023-08-07T09:17:33;18.90;99.90
16958;DHT22;8595;52.542;11.974;2023-08-07T09:20:02;18.80;99.90
16958;DHT22;8595;52.542;11.974;2023-08-07T09:22:30;19.10;99.90
16958;DHT22;8595;52.542;11.974;2023-08-07T09:24:56;19.50;99.90
16958;DHT22;8595;52.542;11.974;2023-08-07T09:27:25;19.70;99.90
16958;DHT22;8595;52.542;11.974;2023-08-07T09:29:54;19.70;99.90
16958;DHT22;8595;52.542;11.974;2023-08-07T09:32:22;19.60;99.90
16958;DHT22;8595;52.542;11.974;2023-08-07T09:34:50;19.30;99.90
16958;DHT22;8595;52.542;11.974;2023-08-07T09:37:18;19.60;99.90
16958;DHT22;8595;52.542;11.974;2023-08-07T09:39:46;19.50;99.90
16958;DHT22;8595;52.542;11.974;2023-08-07T09:42:13;19.80;99.90
16958;DHT22;8595;52.542;11.974;2023-08-07T09:44:41;20.10;99.90
16958;DHT22;8595;52.542;11.974;2023-08-07T09:47:15;20.00;99.90
16958;DHT22;8595;52.542;11.974;2023-08-07T09:49:42;19.90;99.90
16958;DHT22;8595;52.542;11.974;2023-08-07T09:52:10;19.90;99.90
16958;DHT22;8595;52.542;11.974;2023-08-07T09:54:40;19.80;99.90
16958;DHT22;8595;52.542;11.974;2023-08-07T09:57:07;20.00;99.90
16958;DHT22;8595;52.542;11.974;2023-08-07T09:59:34;20.10;99.90
16958;DHT22;8595;52.542;11.974;2023-08-07T10:02:01;20.20;99.90
16958;DHT22;8595;52.542;11.974;2023-08-07T10:04:29;20.00;99.90
16958;DHT22;8595;52.542;11.974;2023-08-07T10:06:56;19.90;99.90
16958;DHT22;8595;52.542;11.974;2023-08-07T10:09:23;20.00;99.90
16958;DHT22;8595;52.542;11.974;2023-08-07T10:11:51;19.80;99.90
16958;DHT22;8595;52.542;11.974;2023-08-07T10:14:19;19.80;99.90
16958;DHT22;8595;52.542;11.974;2023-08-07T10:16:46;19.70;99.90
16958;DHT22;8595;52.542;11.974;2023-08-07T10:19:13;19.50;99.90
16958;DHT22;8595;52.542;11.974;2023-08-07T10:21:40;19.60;99.90
16958;DHT22;8595;52.542;11.974;2023-08-07T10:24:08;20.20;99.90
16958;DHT22;8595;52.542;11.974;2023-08-07T10:26:40;20.70;99.90
16958;DHT22;8595;52.542;11.974;2023-08-07T10:29:11;20.50;99.90
16958;DHT22;8595;52.542;11.974;2023-08-07T10:31:40;20.10;99.90
16958;DHT22;8595;52.542;11.974;2023-08-07T10:34:11;19.70;99.90
16958;DHT22;8595;52.542;11.974;2023-08-07T10:36:39;20.20;99.90
16958;DHT22;8595;52.542;11.974;2023-08-07T10:39:07;20.80;99.90
16958;DHT22;8595;52.542;11.974;2023-08-07T10:41:38;21.00;99.90
16958;DHT22;8595;52.542;11.974;2023-08-07T10:44:18;21.30;99.90
16958;DHT22;8595;52.542;11.974;2023-08-07T10:46:49;21.40;99.90
16958;DHT22;8595;52.542;11.974;2023-08-07T10:49:41;21.60;99.90
16958;DHT22;8595;52.542;11.974;2023-08-07T10:52:08;21.50;99.90
16958;DHT22;8595;52.542;11.974;2023-08-07T10:54:37;21.50;99.90
16958;DHT22;8595;52.542;11.974;2023-08-07T10:57:10;21.40;99.90
16958;DHT22;8595;52.542;11.974;2023-08-07T10:59:49;21.20;99.90
16958;DHT22;8595;52.542;11.974;2023-08-07T11:02:23;21.10;99.90
16958;DHT22;8595;52.542;11.974;2023-08-07T11:04:52;20.90;99.90
16958;DHT22;8595;52.542;11.974;2023-08-07T11:07:24;20.20;99.90
16958;DHT22;8595;52.542;11.974;2023-08-07T11:09:51;19.80;99.90
16958;DHT22;8595;52.542;11.974;2023-08-07T11:12:18;19.60;99.90
16958;DHT22;8595;52.542;11.974;2023-08-07T11:14:46;19.30;99.90
16958;DHT22;8595;52.542;11.974;2023-08-07T11:17:13;19.10;99.90
16958;DHT22;8595;52.542;11.974;2023-08-07T11:19:41;19.20;99.90
16958;DHT22;8595;52.542;11.974;2023-08-07T11:22:08;18.80;99.90
16958;DHT22;8595;52.542;11.974;2023-08-07T11:24:35;18.60;99.90
16958;DHT22;8595;52.542;11.974;2023-08-07T11:27:03;18.80;99.90
16958;DHT22;8595;52.542;11.974;2023-08-07T11:29:32;19.50;99.90
16958;DHT22;8595;52.542;11.974;2023-08-07T11:32:01;20.20;99.90
16958;DHT22;8595;52.542;11.974;2023-08-07T11:34:28;21.00;99.90
16958;DHT22;8595;52.542;11.974;2023-08-07T11:36:55;20.70;99.90
16958;DHT22;8595;52.542;11.974;2023-08-07T11:39:23;21.10;99.90
16958;DHT22;8595;52.542;11.974;2023-08-07T11:41:51;21.60;99.90
16958;DHT22;8595;52.542;11.974;2023-08-07T11:44:18;21.80;99.90
16958;DHT22;8595;52.542;11.974;2023-08-07T11:46:45;21.80;99.90
16958;DHT22;8595;52.542;11.974;2023-08-07T11:49:13;22.30;99.90
16958;DHT22;8595;52.542;11.974;2023-08-07T11:51:40;22.50;99.90
16958;DHT22;8595;52.542;11.974;2023-08-07T11:54:07;22.70;99.90
16958;DHT22;8595;52.542;11.974;2023-08-07T11:56:34;23.10;99.90
16958;DHT22;8595;52.542;11.974;2023-08-07T11:59:02;23.00;99.90
16958;DHT22;8595;52.542;11.974;2023-08-07T12:01:29;22.60;99.90
16958;DHT22;8595;52.542;11.974;2023-08-07T12:03:58;21.70;99.90
16958;DHT22;8595;52.542;11.974;2023-08-07T12:06:36;20.80;99.90
16958;DHT22;8595;52.542;11.974;2023-08-07T12:09:05;20.00;99.90
16958;DHT22;8595;52.542;11.974;2023-08-07T12:11:37;19.80;99.90
16958;DHT22;8595;52.542;11.974;2023-08-07T12:14:04;19.80;99.90
16958;DHT22;8595;52.542;11.974;2023-08-07T12:16:32;19.90;99.90
16958;DHT22;8595;52.542;11.974;2023-08-07T12:18:59;19.80;99.90
16958;DHT22;8595;52.542;11.974;2023-08-07T12:21:26;19.50;99.90
16958;DHT22;8595;52.542;11.974;2023-08-07T12:23:56;19.60;99.90
16958;DHT22;8595;52.542;11.974;2023-08-07T12:26:23;19.70;99.90
16958;DHT22;8595;52.542;11.974;2023-08-07T12:28:50;20.30;99.90
16958;DHT22;8595;52.542;11.974;2023-08-07T12:31:17;20.20;99.90
16958;DHT22;8595;52.542;11.974;2023-08-07T12:33:44;20.10;99.90
16958;DHT22;8595;52.542;11.974;2023-08-07T12:36:11;19.90;99.90
16958;DHT22;8595;52.542;11.974;2023-08-07T12:38:38;20.20;99.90
16958;DHT22;8595;52.542;11.974;2023-08-07T12:41:07;20.60;99.90
16958;DHT22;8595;52.542;11.974;2023-08-07T12:43:33;20.40;99.90
16958;DHT22;8595;52.542;11.974;2023-08-07T12:46:00;20.70;99.90
16958;DHT22;8595;52.542;11.974;2023-08-07T12:48:27;21.30;99.90
16958;DHT22;8595;52.542;11.974;2023-08-07T12:50:54;21.60;99.90
16958;DHT22;8595;52.542;11.974;2023-08-07T12:53:20;22.20;99.90
16958;DHT22;8595;52.542;11.974;2023-08-07T12:55:47;22.10;99.90
16958;DHT22;8595;52.542;11.974;2023-08-07T12:58:15;22.40;99.90
16958;DHT22;8595;52.542;11.974;2023-08-07T13:00:44;23.20;99.90
16958;DHT22;8595;52.542;11.974;2023-08-07T13:03:11;23.30;99.90
16958;DHT22;8595;52.542;11.974;2023-08-07T13:05:37;23.50;99.90
16958;DHT22;8595;52.542;11.974;2023-08-07T13:08:04;23.40;99.90
16958;DHT22;8595;52.542;11.974;2023-08-07T13:10:31;23.30;99.90
16958;DHT22;8595;52.542;11.974;2023-08-07T13:12:58;23.20;99.90
16958;DHT22;8595;52.542;11.974;2023-08-07T13:15:28;23.00;99.90
16958;DHT22;8595;52.542;11.974;2023-08-07T13:17:55;23.40;99.90
16958;DHT22;8595;52.542;11.974;2023-08-07T13:20:22;23.50;99.90
16958;DHT22;8595;52.542;11.974;2023-08-07T13:22:49;22.80;99.90
16958;DHT22;8595;52.542;11.974;2023-08-07T13:25:15;23.00;99.90
16958;DHT22;8595;52.542;11.974;2023-08-07T13:27:42;23.10;99.90
16958;DHT22;8595;52.542;11.974;2023-08-07T13:30:10;23.50;99.90
16958;DHT22;8595;52.542;11.974;2023-08-07T13:32:38;23.20;99.90
16958;DHT22;8595;52.542;11.974;2023-08-07T13:35:05;22.60;99.90
16958;DHT22;8595;52.542;11.974;2023-08-07T13:37:32;21.90;99.90
16958;DHT22;8595;52.542;11.974;2023-08-07T13:39:59;21.70;99.90
16958;DHT22;8595;52.542;11.974;2023-08-07T13:42:26;21.60;99.90
16958;DHT22;8595;52.542;11.974;2023-08-07T13:44:54;22.00;99.90
16958;DHT22;8595;52.542;11.974;2023-08-07T13:47:21;22.70;99.90
16958;DHT22;8595;52.542;11.974;2023-08-07T13:49:52;23.20;99.90
16958;DHT22;8595;52.542;11.974;2023-08-07T13:52:23;23.50;99.90
16958;DHT22;8595;52.542;11.974;2023-08-07T13:54:50;23.30;99.90
16958;DHT22;8595;52.542;11.974;2023-08-07T13:57:17;22.80;99.90
16958;DHT22;8595;52.542;11.974;2023-08-07T13:59:45;21.80;99.90
16958;DHT22;8595;52.542;11.974;2023-08-07T14:02:11;21.50;99.90
16958;DHT22;8595;52.542;11.974;2023-08-07T14:04:39;21.20;99.90
16958;DHT22;8595;52.542;11.974;2023-08-07T14:07:07;21.60;99.90
16958;DHT22;8595;52.542;11.974;2023-08-07T14:09:33;21.80;99.90
16958;DHT22;8595;52.542;11.974;2023-08-07T14:12:00;22.60;99.90
16958;DHT22;8595;52.542;11.974;2023-08-07T14:14:27;22.60;99.90
16958;DHT22;8595;52.542;11.974;2023-08-07T14:16:54;22.30;99.90
16958;DHT22;8595;52.542;11.974;2023-08-07T14:19:23;23.00;99.90
16958;DHT22;8595;52.542;11.974;2023-08-07T14:21:49;22.90;99.90
16958;DHT22;8595;52.542;11.974;2023-08-07T14:24:18;23.20;99.90
16958;DHT22;8595;52.542;11.974;2023-08-07T14:26:44;23.30;99.90
16958;DHT22;8595;52.542;11.974;2023-08-07T14:29:12;22.80;99.90
16958;DHT22;8595;52.542;11.974;2023-08-07T14:31:39;22.20;99.90
16958;DHT22;8595;52.542;11.974;2023-08-07T14:34:06;21.60;99.90
16958;DHT22;8595;52.542;11.974;2023-08-07T14:36:33;20.80;99.90
16958;DHT22;8595;52.542;11.974;2023-08-07T14:38:59;20.50;99.90
16958;DHT22;8595;52.542;11.974;2023-08-07T14:41:27;20.50;99.90
16958;DHT22;8595;52.542;11.974;2023-08-07T14:43:54;20.40;99.90
16958;DHT22;8595;52.542;11.974;2023-08-07T14:46:21;20.30;99.90
16958;DHT22;8595;52.542;11.974;2023-08-07T14:48:49;20.00;99.90
16958;DHT22;8595;52.542;11.974;2023-08-07T14:51:16;19.60;99.90
16958;DHT22;8595;52.542;11.974;2023-08-07T14:53:42;19.50;99.90
16958;DHT22;8595;52.542;11.974;2023-08-07T14:56:09;19.20;99.90
16958;DHT22;8595;52.542;11.974;2023-08-07T14:58:37;18.70;99.90
16958;DHT22;8595;52.542;11.974;2023-08-07T15:01:04;18.70;99.90
16958;DHT22;8595;52.542;11.974;2023-08-07T15:03:31;18.90;99.90
16958;DHT22;8595;52.542;11.974;2023-08-07T15:05:58;19.10;99.90
16958;DHT22;8595;52.542;11.974;2023-08-07T15:08:25;19.40;99.90
16958;DHT22;8595;52.542;11.974;2023-08-07T15:10:51;20.40;99.90
16958;DHT22;8595;52.542;11.974;2023-08-07T15:13:19;21.10;99.90
16958;DHT22;8595;52.542;11.974;2023-08-07T15:15:47;21.10;99.90
16958;DHT22;8595;52.542;11.974;2023-08-07T15:18:14;21.40;99.90
16958;DHT22;8595;52.542;11.974;2023-08-07T15:20:40;21.80;99.90
16958;DHT22;8595;52.542;11.974;2023-08-07T15:23:07;21.90;99.90
16958;DHT22;8595;52.542;11.974;2023-08-07T15:25:34;22.20;99.90
16958;DHT22;8595;52.542;11.974;2023-08-07T15:28:01;21.60;99.90
16958;DHT22;8595;52.542;11.974;2023-08-07T15:30:29;21.50;99.90
16958;DHT22;8595;52.542;11.974;2023-08-07T15:32:57;21.70;99.90